Time;durP1;ratioP1;P1;durP2;ratioP2;P2;SDS_P1;SDS_P2;PMS_P1;PMS_P2;Temp;Humidity;BMP_temperature;BMP_pressure;BME280_temperature;BME280_humidity;BME280_pressure;Samples;Min_cycle;Max_cycle;Signal;HPM_P1;HPM_P2
2020/12/22 00:02:07;;;;;;;34.03;20.77;;;;;;;-2.28;74.13;102141.05;1752567;81;21069;-52
2020/12/22 00:04:34;;;;;;;30.55;18.67;;;;;;;-2.28;74.36;102153.67;1752536;81;21014;-52
2020/12/22 00:07:02;;;;;;;31.95;18.67;;;;;;;-2.26;74.53;102143.59;1757478;81;21388;-52
2020/12/22 00:09:30;;;;;;;29.35;18.92;;;;;;;-2.23;74.36;102151.87;1758237;81;21017;-52
2020/12/22 00:11:57;;;;;;;30.80;20.37;;;;;;;-2.25;74.44;102147.99;1758282;81;21049;-53
2020/12/22 00:14:25;;;;;;;31.50;19.73;;;;;;;-2.22;74.58;102137.44;1758092;81;21687;-53
2020/12/22 00:16:52;;;;;;;27.48;18.70;;;;;;;-2.22;74.68;102148.20;1758282;81;21022;-53
2020/12/22 00:19:19;;;;;;;29.52;19.25;;;;;;;-2.24;74.75;102151.52;1758136;81;21279;-53
2020/12/22 00:21:47;;;;;;;26.00;20.35;;;;;;;-2.27;74.76;102143.27;1758119;81;21537;-52
2020/12/22 00:24:14;;;;;;;29.77;18.75;;;;;;;-2.24;74.94;102140.27;1758159;81;21303;-52
2020/12/22 00:26:49;;;;;;;27.75;18.82;;;;;;;-2.22;74.88;102136.09;1758241;81;20951;-52
2020/12/22 00:29:16;;;;;;;26.17;20.62;;;;;;;-2.22;74.95;102130.19;1758306;81;21001;-52
2020/12/22 00:31:44;;;;;;;31.02;21.33;;;;;;;-2.26;75.05;102128.78;1758295;81;21380;-52
2020/12/22 00:34:13;;;;;;;31.50;22.60;;;;;;;-2.31;75.14;102131.09;1757866;81;21081;-52
2020/12/22 00:36:40;;;;;;;28.40;21.90;;;;;;;-2.33;75.46;102121.81;1758150;81;21053;-52
2020/12/22 00:39:08;;;;;;;29.92;21.10;;;;;;;-2.27;75.59;102125.25;1758255;81;21045;-53
2020/12/22 00:41:35;;;;;;;26.52;20.72;;;;;;;-2.20;75.66;102116.58;1758201;81;21093;-52
2020/12/22 00:44:03;;;;;;;30.65;20.17;;;;;;;-2.15;75.62;102108.92;1758308;81;21200;-52
2020/12/22 00:46:30;;;;;;;29.02;21.45;;;;;;;-2.13;75.51;102106.44;1758200;81;21033;-52
2020/12/22 00:48:58;;;;;;;32.30;23.95;;;;;;;-2.06;75.57;102109.88;1758285;81;21604;-52
2020/12/22 00:51:26;;;;;;;30.95;23.55;;;;;;;-2.01;75.48;102108.43;1758225;81;21497;-52
2020/12/22 00:53:56;;;;;;;25.97;19.67;;;;;;;-1.94;75.44;102113.56;1758256;81;21034;-52
2020/12/22 00:56:24;;;;;;;32.80;24.23;;;;;;;-1.90;75.20;102111.44;1758198;81;21274;-52
2020/12/22 00:58:53;;;;;;;30.75;24.82;;;;;;;-1.89;75.26;102113.62;1758032;81;21022;-52
2020/12/22 01:01:21;;;;;;;32.60;22.37;;;;;;;-1.92;74.77;102106.68;1758319;81;20989;-52
2020/12/22 01:03:49;;;;;;;36.00;25.80;;;;;;;-1.94;74.76;102107.34;1758001;81;20986;-52
2020/12/22 01:06:17;;;;;;;30.90;23.15;;;;;;;-1.96;74.59;102103.94;1758228;81;21030;-53
2020/12/22 01:08:45;;;;;;;32.98;22.45;;;;;;;-2.03;74.46;102113.13;1758226;81;21386;-52
2020/12/22 01:11:14;;;;;;;30.57;21.30;;;;;;;-2.05;74.70;102116.96;1758110;81;21069;-52
2020/12/22 01:13:41;;;;;;;33.48;23.80;;;;;;;-2.05;74.34;102114.27;1758096;81;21061;-52
2020/12/22 01:16:09;;;;;;;38.88;24.32;;;;;;;-2.13;74.37;102106.44;1758212;81;21607;-52
2020/12/22 01:18:38;;;;;;;34.60;21.95;;;;;;;-2.16;74.47;102104.52;1756920;81;21143;-52
2020/12/22 01:21:06;;;;;;;34.08;23.32;;;;;;;-2.15;74.55;102109.76;1758134;81;21421;-53
2020/12/22 01:23:35;;;;;;;39.13;23.18;;;;;;;-2.14;74.52;102112.81;1758086;81;21053;-52
2020/12/22 01:26:03;;;;;;;39.58;25.97;;;;;;;-2.16;74.66;102106.73;1758228;81;20994;-53
2020/12/22 01:28:31;;;;;;;36.08;24.40;;;;;;;-2.17;74.84;102109.55;1758225;81;21647;-53
2020/12/22 01:30:58;;;;;;;43.05;26.55;;;;;;;-2.15;74.93;102107.06;1758219;81;21026;-52
2020/12/22 01:33:25;;;;;;;47.55;25.48;;;;;;;-2.09;74.87;102101.59;1758116;81;23609;-53
2020/12/22 01:35:53;;;;;;;36.68;23.12;;;;;;;-2.06;74.72;102097.24;1758033;81;21596;-53
2020/12/22 01:38:20;;;;;;;37.48;24.02;;;;;;;-2.02;74.51;102103.20;1758267;81;21065;-53
2020/12/22 01:40:49;;;;;;;48.38;30.17;;;;;;;-2.01;74.52;102092.78;1758226;81;20990;-53
2020/12/22 01:43:16;;;;;;;50.45;28.07;;;;;;;-2.00;74.48;102095.33;1758147;81;20994;-53
2020/12/22 01:45:44;;;;;;;41.75;23.30;;;;;;;-1.93;74.61;102095.55;1758182;81;21208;-53
2020/12/22 01:48:11;;;;;;;42.83;25.70;;;;;;;-1.83;74.34;102085.59;1758157;81;20982;-53
2020/12/22 01:50:39;;;;;;;46.98;30.20;;;;;;;-1.81;74.00;102091.67;1758206;81;21675;-53
2020/12/22 01:53:06;;;;;;;46.60;29.85;;;;;;;-1.81;73.76;102093.02;1758177;81;21057;-53
2020/12/22 01:55:34;;;;;;;52.80;29.32;;;;;;;-1.84;73.49;102104.58;1758092;81;21041;-52
2020/12/22 01:58:01;;;;;;;39.00;26.02;;;;;;;-1.93;73.75;102087.47;1758234;81;22786;-53
2020/12/22 02:00:28;;;;;;;46.23;29.12;;;;;;;-1.93;73.94;102080.26;1758112;81;21006;-52
2020/12/22 02:02:55;;;;;;;52.38;29.42;;;;;;;-1.89;73.90;102087.52;1758198;81;21057;-52
2020/12/22 02:05:23;;;;;;;44.15;25.77;;;;;;;-1.82;73.82;102085.92;1758054;81;21030;-52
2020/12/22 02:07:51;;;;;;;45.15;29.80;;;;;;;-1.86;73.26;102087.22;1752758;81;21406;-52
2020/12/22 02:10:18;;;;;;;43.83;25.50;;;;;;;-1.94;73.19;102084.45;1752532;81;21716;-52
2020/12/22 02:12:45;;;;;;;40.48;25.45;;;;;;;-2.01;73.33;102082.01;1752264;81;21022;-52
2020/12/22 02:15:12;;;;;;;43.38;26.25;;;;;;;-2.06;73.58;102070.83;1752503;81;21033;-52
2020/12/22 02:17:40;;;;;;;40.63;25.32;;;;;;;-2.10;73.67;102068.44;1752453;81;21047;-52
2020/12/22 02:20:07;;;;;;;31.50;20.77;;;;;;;-2.11;73.65;102064.04;1752553;81;21057;-52
2020/12/22 02:22:34;;;;;;;38.75;22.55;;;;;;;-2.09;73.54;102071.97;1752626;81;22170;-52
2020/12/22 02:25:04;;;;;;;32.60;21.35;;;;;;;-2.09;73.64;102076.88;1752331;81;21038;-52
2020/12/22 02:27:36;;;;;;;46.02;27.05;;;;;;;-2.06;73.53;102084.29;1752486;81;21042;-53
2020/12/22 02:30:05;;;;;;;49.48;26.73;;;;;;;-2.05;73.39;102076.57;1752319;81;21077;-52
2020/12/22 02:32:32;;;;;;;43.13;24.85;;;;;;;-2.07;73.48;102073.16;1752487;81;21196;-52
2020/12/22 02:35:00;;;;;;;43.30;26.10;;;;;;;-2.11;73.40;102076.16;1752539;81;21286;-52
2020/12/22 02:37:27;;;;;;;43.85;26.33;;;;;;;-2.10;73.57;102076.52;1752381;81;21069;-53
2020/12/22 02:39:54;;;;;;;45.30;28.23;;;;;;;-2.07;73.82;102077.20;1747678;81;21034;-52
2020/12/22 02:42:22;;;;;;;39.53;25.48;;;;;;;-2.02;73.80;102079.80;1752367;81;21029;-52
2020/12/22 02:44:49;;;;;;;48.02;28.47;;;;;;;-2.00;73.45;102075.60;1752708;81;21014;-52
2020/12/22 02:47:17;;;;;;;41.58;25.48;;;;;;;-2.02;73.39;102071.72;1752743;81;21252;-52
2020/12/22 02:49:44;;;;;;;39.10;24.55;;;;;;;-2.06;73.47;102080.25;1752620;81;21611;-53
2020/12/22 02:52:11;;;;;;;45.30;27.67;;;;;;;-2.07;73.39;102077.20;1752763;81;21038;-52
2020/12/22 02:54:39;;;;;;;48.80;27.52;;;;;;;-2.06;73.65;102074.35;1752623;81;20990;-52
2020/12/22 02:57:07;;;;;;;46.28;28.23;;;;;;;-2.01;73.75;102074.77;1752855;81;21018;-53
2020/12/22 02:59:34;;;;;;;46.35;27.13;;;;;;;-1.94;73.62;102072.33;1752660;81;21082;-52
2020/12/22 03:02:03;;;;;;;50.95;31.17;;;;;;;-1.93;73.57;102067.27;1752570;81;21053;-53
2020/12/22 03:04:31;;;;;;;44.90;27.87;;;;;;;-1.87;73.71;102072.08;1752638;81;21493;-53
2020/12/22 03:06:59;;;;;;;44.63;28.98;;;;;;;-1.81;73.50;102067.42;1752479;81;21077;-52
2020/12/22 03:09:27;;;;;;;47.73;28.80;;;;;;;-1.77;73.43;102071.52;1752715;81;21071;-52
2020/12/22 03:11:54;;;;;;;43.00;25.17;;;;;;;-1.79;73.34;102066.75;1752773;81;21358;-51
2020/12/22 03:14:22;;;;;;;39.85;23.65;;;;;;;-1.79;73.11;102068.61;1752598;81;21568;-51
2020/12/22 03:16:50;;;;;;;43.85;27.35;;;;;;;-1.86;72.98;102060.28;1752740;81;21030;-53
2020/12/22 03:19:21;;;;;;;37.73;24.57;;;;;;;-1.89;73.16;102053.86;1752398;81;21082;-52
2020/12/22 03:21:48;;;;;;;40.35;23.87;;;;;;;-1.89;73.27;102048.47;1752655;81;21037;-52
2020/12/22 03:24:16;;;;;;;44.08;27.37;;;;;;;-1.86;73.12;102048.16;1752638;81;21829;-52
2020/12/22 03:26:44;;;;;;;40.35;26.48;;;;;;;-1.85;73.20;102043.64;1752605;81;21077;-52
2020/12/22 03:29:11;;;;;;;39.98;24.87;;;;;;;-1.81;73.26;102045.87;1752647;81;20982;-52
2020/12/22 03:31:38;;;;;;;41.00;24.87;;;;;;;-1.75;73.11;102051.16;1752576;81;21030;-52
2020/12/22 03:34:06;;;;;;;42.93;25.35;;;;;;;-1.76;72.81;102046.75;1752827;81;21010;-52
2020/12/22 03:36:34;;;;;;;43.48;26.35;;;;;;;-1.76;73.00;102053.02;1752462;81;21222;-53
2020/12/22 03:39:01;;;;;;;39.83;26.37;;;;;;;-1.78;72.82;102056.34;1752674;81;21065;-52
2020/12/22 03:41:28;;;;;;;38.20;23.98;;;;;;;-1.82;72.59;102060.33;1752674;81;21516;-52
2020/12/22 03:43:56;;;;;;;41.25;24.25;;;;;;;-1.88;72.82;102058.25;1752519;81;21030;-52
2020/12/22 03:46:26;;;;;;;49.18;28.15;;;;;;;-1.90;73.03;102058.91;1752684;81;21457;-52
2020/12/22 03:48:53;;;;;;;35.58;23.52;;;;;;;-1.92;73.18;102059.03;1752663;81;22104;-52
2020/12/22 03:51:21;;;;;;;45.03;26.80;;;;;;;-1.91;73.35;102058.56;1752606;81;21026;-52
2020/12/22 03:53:48;;;;;;;45.75;28.15;;;;;;;-1.90;73.27;102056.22;1752550;81;21066;-52
2020/12/22 03:56:16;;;;;;;41.83;24.92;;;;;;;-1.90;73.51;102044.10;1752618;81;21002;-52
2020/12/22 03:58:43;;;;;;;35.58;20.92;;;;;;;-1.88;73.58;102047.48;1752617;81;21029;-52
2020/12/22 04:01:11;;;;;;;42.50;27.22;;;;;;;-1.86;73.81;102046.81;1752624;81;21206;-52
2020/12/22 04:03:38;;;;;;;43.08;24.18;;;;;;;-1.84;73.77;102046.18;1752578;81;21029;-53
2020/12/22 04:06:06;;;;;;;39.30;22.30;;;;;;;-1.80;73.92;102042.19;1752628;81;21070;-52
2020/12/22 04:08:34;;;;;;;36.38;22.75;;;;;;;-1.74;73.62;102053.69;1752553;81;21013;-52
2020/12/22 04:11:02;;;;;;;49.83;30.65;;;;;;;-1.77;73.66;102043.22;1752780;81;21457;-53
2020/12/22 04:13:31;;;;;;;42.73;26.35;;;;;;;-1.76;73.65;102048.10;1752576;81;22511;-53
2020/12/22 04:15:59;;;;;;;38.23;24.20;;;;;;;-1.77;73.62;102041.05;1752525;81;21636;-53
2020/12/22 04:18:26;;;;;;;40.35;23.65;;;;;;;-1.74;73.62;102052.34;1752549;81;21608;-52
2020/12/22 04:20:59;;;;;;;43.63;23.90;;;;;;;-1.71;73.46;102049.85;1752643;81;22020;-53
2020/12/22 04:23:27;;;;;;;46.55;26.07;;;;;;;-1.68;73.53;102050.05;1752611;81;21037;-53
2020/12/22 04:25:54;;;;;;;42.70;26.75;;;;;;;-1.72;73.36;102052.70;1752745;81;21395;-51
2020/12/22 04:28:22;;;;;;;45.05;28.62;;;;;;;-1.77;73.32;102054.52;1752674;81;21166;-53
2020/12/22 04:30:49;;;;;;;45.38;29.55;;;;;;;-1.80;73.47;102049.40;1752491;81;21034;-52
2020/12/22 04:33:17;;;;;;;40.78;25.57;;;;;;;-1.81;73.52;102041.83;1752627;81;21672;-53
2020/12/22 04:35:44;;;;;;;48.73;28.00;;;;;;;-1.78;73.62;102042.87;1752520;81;21056;-52
2020/12/22 04:38:12;;;;;;;41.08;25.37;;;;;;;-1.75;73.49;102039.86;1752562;81;21195;-52
2020/12/22 04:40:39;;;;;;;43.90;25.75;;;;;;;-1.76;73.36;102038.19;1752679;81;21623;-52
2020/12/22 04:43:07;;;;;;;38.35;24.75;;;;;;;-1.82;73.66;102033.39;1752535;81;22052;-52
2020/12/22 04:45:34;;;;;;;41.33;25.35;;;;;;;-1.84;73.96;102030.02;1752451;81;22163;-52
2020/12/22 04:48:01;;;;;;;44.55;29.57;;;;;;;-1.80;74.10;102039.48;1752649;81;21636;-52
2020/12/22 04:50:29;;;;;;;43.58;27.05;;;;;;;-1.79;74.18;102038.47;1752582;81;21279;-52
2020/12/22 04:52:57;;;;;;;51.30;29.90;;;;;;;-1.70;74.23;102035.87;1752494;81;21014;-52
2020/12/22 04:55:24;;;;;;;45.43;26.97;;;;;;;-1.67;73.90;102035.55;1723222;81;20970;-53
2020/12/22 04:57:54;;;;;;;39.48;24.98;;;;;;;-1.70;73.73;102035.39;1752624;81;21045;-53
2020/12/22 05:00:21;;;;;;;34.48;21.45;;;;;;;-1.75;73.85;102035.82;1752498;81;21064;-53
2020/12/22 05:02:50;;;;;;;37.10;23.32;;;;;;;-1.72;73.52;102039.23;1752662;81;21281;-53
2020/12/22 05:05:19;;;;;;;39.23;22.13;;;;;;;-1.78;73.51;102029.91;1752606;81;21081;-52
2020/12/22 05:07:47;;;;;;;34.35;22.37;;;;;;;-1.82;73.69;102030.70;1752502;81;21002;-53
2020/12/22 05:10:14;;;;;;;28.73;18.20;;;;;;;-1.84;73.71;102033.19;1752449;81;21077;-52
2020/12/22 05:12:42;;;;;;;25.45;18.05;;;;;;;-1.86;73.83;102029.81;1752626;81;21010;-52
2020/12/22 05:15:11;;;;;;;27.77;18.02;;;;;;;-1.87;73.99;102023.59;1752624;81;21371;-53
2020/12/22 05:17:45;;;;;;;29.57;19.42;;;;;;;-1.84;74.18;102021.94;1752404;81;21065;-53
2020/12/22 05:20:18;;;;;;;26.68;17.40;;;;;;;-1.81;74.07;102018.09;1752708;81;21022;-53
2020/12/22 05:22:47;;;;;;;28.52;18.92;;;;;;;-1.82;74.15;102015.88;1747743;81;21014;-53
2020/12/22 05:25:19;;;;;;;25.90;17.10;;;;;;;-1.85;74.12;102028.83;1752443;81;21070;-53
2020/12/22 05:27:49;;;;;;;24.63;17.02;;;;;;;-1.87;74.31;102031.67;1747843;81;21269;-53
2020/12/22 05:30:18;;;;;;;20.68;14.58;;;;;;;-1.90;74.20;102037.37;1752540;81;21054;-53
2020/12/22 05:32:50;;;;;;;22.10;14.95;;;;;;;-1.94;74.54;102021.16;1752580;81;21014;-53
2020/12/22 05:35:19;;;;;;;22.60;13.38;;;;;;;-1.92;74.75;102032.61;1752565;81;21294;-53
2020/12/22 05:37:49;;;;;;;21.10;15.10;;;;;;;-1.88;74.73;102038.05;1752610;81;21126;-53
2020/12/22 05:40:19;;;;;;;20.48;14.25;;;;;;;-1.87;74.63;102026.28;1752484;81;21376;-53
2020/12/22 05:42:46;;;;;;;19.73;13.75;;;;;;;-1.87;74.72;102024.94;1752483;81;20966;-53
2020/12/22 05:45:14;;;;;;;22.87;15.68;;;;;;;-1.83;74.72;102024.98;1752405;81;21038;-54
2020/12/22 05:47:43;;;;;;;21.17;14.53;;;;;;;-1.81;74.70;102018.09;1752325;81;22088;-54
2020/12/22 05:50:10;;;;;;;19.45;13.18;;;;;;;-1.76;74.92;102021.16;1723399;81;21058;-54
2020/12/22 05:52:38;;;;;;;22.07;14.07;;;;;;;-1.71;74.75;102019.38;1752439;81;21262;-54
2020/12/22 05:55:06;;;;;;;29.75;16.70;;;;;;;-1.71;74.49;102022.91;1723122;81;21168;-54
2020/12/22 05:57:34;;;;;;;23.73;14.63;;;;;;;-1.70;74.34;102016.53;1752686;81;21561;-54
2020/12/22 06:00:14;;;;;;;22.10;14.73;;;;;;;-1.71;74.33;102016.69;1752479;81;21019;-54
2020/12/22 06:02:42;;;;;;;20.65;15.72;;;;;;;-1.70;74.48;102004.88;1752537;81;22276;-54
2020/12/22 06:05:09;;;;;;;18.75;13.72;;;;;;;-1.70;74.35;102012.97;1752457;81;21292;-53
2020/12/22 06:07:37;;;;;;;19.27;12.98;;;;;;;-1.72;74.31;102010.94;1754125;81;21061;-54
2020/12/22 06:10:04;;;;;;;22.80;14.28;;;;;;;-1.74;74.37;102006.55;1758098;81;21592;-54
2020/12/22 06:12:32;;;;;;;24.75;13.20;;;;;;;-1.75;74.49;102014.78;1758016;81;21037;-54
2020/12/22 06:14:59;;;;;;;21.77;14.87;;;;;;;-1.78;74.54;102013.23;1758237;81;20959;-54
2020/12/22 06:17:26;;;;;;;20.57;13.83;;;;;;;-1.76;74.55;102013.08;1758046;81;21260;-54
2020/12/22 06:19:54;;;;;;;17.87;13.45;;;;;;;-1.80;74.69;102011.69;1758387;81;21037;-53
2020/12/22 06:22:21;;;;;;;19.00;14.85;;;;;;;-1.79;74.88;102006.65;1758407;81;21041;-54
2020/12/22 06:24:52;;;;;;;22.27;14.53;;;;;;;-1.77;74.80;101997.42;1758110;80;21065;-53
2020/12/22 06:27:20;;;;;;;23.65;15.63;;;;;;;-1.78;74.90;102010.53;1758474;81;21580;-53
2020/12/22 06:29:47;;;;;;;22.55;14.60;;;;;;;-1.78;75.10;101999.77;1706493;81;21057;-54
2020/12/22 06:32:27;;;;;;;22.58;14.87;;;;;;;-1.71;75.14;102002.70;1758399;81;21022;-55
2020/12/22 06:34:57;;;;;;;21.37;14.50;;;;;;;-1.69;75.21;101997.16;1758289;81;21115;-53
2020/12/22 06:37:42;;;;;;;23.80;15.85;;;;;;;-1.67;75.18;102001.39;1758097;81;21046;-54
2020/12/22 06:40:10;;;;;;;23.60;15.28;;;;;;;-1.66;75.20;101999.53;1756094;81;21544;-53
2020/12/22 06:42:44;;;;;;;21.68;15.58;;;;;;;-1.63;75.24;101999.22;1758193;81;21323;-53
2020/12/22 06:45:29;;;;;;;22.77;15.63;;;;;;;-1.61;75.01;101995.89;1758348;81;21580;-53
2020/12/22 06:47:59;;;;;;;18.87;13.88;;;;;;;-1.59;75.22;101989.83;1758261;81;21097;-53
2020/12/22 06:50:41;;;;;;;22.80;15.40;;;;;;;-1.53;75.18;101997.29;1758111;81;21057;-54
2020/12/22 06:53:35;;;;;;;21.12;15.15;;;;;;;-1.53;74.94;101994.59;1758296;81;21591;-54
2020/12/22 06:56:03;;;;;;;23.55;16.05;;;;;;;-1.53;75.19;101993.25;1757830;81;21274;-53
2020/12/22 06:58:41;;;;;;;23.52;16.80;;;;;;;-1.50;75.06;101980.83;1758166;81;21071;-53
2020/12/22 07:01:32;;;;;;;30.62;15.25;;;;;;;-1.52;74.86;101989.56;1755354;81;21146;-53
2020/12/22 07:04:21;;;;;;;23.27;17.32;;;;;;;-1.49;75.08;101985.20;1760908;81;21025;-54
2020/12/22 07:06:58;;;;;;;24.23;17.73;;;;;;;-1.46;74.99;101982.22;1761189;79;21026;-54
2020/12/22 07:09:30;;;;;;;29.25;17.75;;;;;;;-1.45;74.90;101973.11;1769589;79;21227;-54
2020/12/22 07:12:11;;;;;;;21.20;14.70;;;;;;;-1.43;75.05;101972.47;1773013;79;21045;-53
2020/12/22 07:14:43;;;;;;;21.55;13.68;;;;;;;-1.36;74.93;101976.72;1757311;79;21028;-53
2020/12/22 07:17:15;;;;;;;22.17;16.00;;;;;;;-1.37;74.74;101969.65;1775188;79;21726;-54
2020/12/22 07:19:46;;;;;;;19.92;14.75;;;;;;;-1.33;74.89;101965.64;1738737;81;21000;-53
2020/12/22 07:22:17;;;;;;;17.70;13.25;;;;;;;-1.24;74.67;101958.45;1740302;82;21417;-53
2020/12/22 07:24:45;;;;;;;18.42;14.73;;;;;;;-1.23;74.38;101968.22;1754334;81;21037;-54
2020/12/22 07:27:13;;;;;;;24.05;15.65;;;;;;;-1.26;74.28;101963.14;1754590;81;21038;-54
2020/12/22 07:29:41;;;;;;;30.50;16.42;;;;;;;-1.30;74.60;101963.11;1754444;81;21706;-54
2020/12/22 07:32:09;;;;;;;20.52;13.55;;;;;;;-1.33;74.61;101957.55;1775478;80;21061;-54
2020/12/22 07:34:36;;;;;;;20.95;14.80;;;;;;;-1.33;74.79;101952.16;1785646;80;21412;-54
2020/12/22 07:37:07;;;;;;;19.70;12.85;;;;;;;-1.34;74.61;101952.30;1785455;80;21058;-54
2020/12/22 07:39:35;;;;;;;20.10;13.58;;;;;;;-1.33;74.72;101958.03;1785681;80;21050;-54
2020/12/22 07:42:18;;;;;;;26.80;17.62;;;;;;;-1.33;74.82;101946.77;1785507;80;21029;-53
2020/12/22 07:44:47;;;;;;;25.45;15.88;;;;;;;-1.31;74.86;101949.31;1785593;80;21045;-54
2020/12/22 07:47:15;;;;;;;21.40;14.65;;;;;;;-1.25;74.75;101948.67;1781302;80;21464;-53
2020/12/22 07:49:45;;;;;;;19.07;14.25;;;;;;;-1.24;74.62;101947.67;1754494;81;20999;-54
2020/12/22 07:52:19;;;;;;;20.48;14.00;;;;;;;-1.21;74.55;101950.05;1754514;81;21048;-54
2020/12/22 07:54:59;;;;;;;21.05;16.17;;;;;;;-1.20;74.36;101942.31;1754395;81;21030;-54
2020/12/22 07:57:26;;;;;;;23.02;16.07;;;;;;;-1.21;74.34;101941.95;1754356;81;20991;-54
2020/12/22 08:00:09;;;;;;;20.50;14.25;;;;;;;-1.20;74.54;101954.45;1754440;81;21159;-55
2020/12/22 08:02:37;;;;;;;21.35;14.78;;;;;;;-1.16;74.59;101938.27;1754345;81;20975;-55
2020/12/22 08:05:13;;;;;;;22.35;15.58;;;;;;;-1.11;74.62;101935.11;1754367;81;20990;-53
2020/12/22 08:07:44;;;;;;;20.43;15.27;;;;;;;-1.07;74.31;101940.54;1751794;80;21561;-55
2020/12/22 08:10:12;;;;;;;26.70;15.05;;;;;;;-1.04;74.21;101938.87;1725101;83;20985;-54
2020/12/22 08:12:43;;;;;;;28.47;16.85;;;;;;;-1.03;74.03;101945.09;1724663;82;21292;-55
2020/12/22 08:15:12;;;;;;;28.83;15.25;;;;;;;-0.96;74.14;101940.23;1712369;82;21097;-54
2020/12/22 08:17:42;;;;;;;31.42;16.02;;;;;;;-0.89;73.88;101937.27;1704288;82;21147;-54
2020/12/22 08:20:13;;;;;;;21.42;14.03;;;;;;;-0.84;73.92;101935.91;1747798;81;21611;-55
2020/12/22 08:22:43;;;;;;;18.48;13.43;;;;;;;-0.73;74.10;101935.16;1715772;82;21111;-54
2020/12/22 08:25:11;;;;;;;21.07;14.53;;;;;;;-0.60;73.83;101929.79;1717803;82;21755;-53
2020/12/22 08:27:38;;;;;;;26.42;12.23;;;;;;;-0.54;73.28;101919.72;1722462;82;21087;-54
2020/12/22 08:30:21;;;;;;;19.15;14.07;;;;;;;-0.52;72.87;101920.38;1720588;82;21058;-55
2020/12/22 08:32:49;;;;;;;21.95;14.07;;;;;;;-0.57;72.47;101915.48;1721369;82;21093;-54
2020/12/22 08:35:24;;;;;;;27.37;15.68;;;;;;;-0.61;72.63;101903.83;1726354;80;21063;-55
2020/12/22 08:37:52;;;;;;;26.80;13.83;;;;;;;-0.59;72.81;101905.84;1720087;81;21367;-55
2020/12/22 08:40:29;;;;;;;21.42;14.95;;;;;;;-0.56;72.80;101902.34;1733011;81;21050;-55
2020/12/22 08:42:58;;;;;;;21.57;14.75;;;;;;;-0.55;72.93;101912.61;1722490;82;21676;-55
2020/12/22 08:45:30;;;;;;;22.00;15.23;;;;;;;-0.54;72.62;101898.12;1730112;81;21705;-55
2020/12/22 08:47:57;;;;;;;23.42;16.95;;;;;;;-0.53;72.72;101903.35;1723923;82;21018;-55
2020/12/22 08:50:27;;;;;;;22.37;15.35;;;;;;;-0.53;72.84;101903.35;1732373;81;22238;-54
2020/12/22 08:52:55;;;;;;;28.47;15.58;;;;;;;-0.47;72.76;101903.69;1720121;82;21096;-54
2020/12/22 08:55:25;;;;;;;19.82;14.83;;;;;;;-0.45;72.60;101893.07;1727284;82;21051;-54
2020/12/22 08:57:52;;;;;;;23.55;15.55;;;;;;;-0.42;72.73;101891.39;1726466;82;21786;-53
2020/12/22 09:00:24;;;;;;;26.40;15.28;;;;;;;-0.41;72.74;101887.69;1718051;82;21060;-56
2020/12/22 09:02:52;;;;;;;22.80;15.95;;;;;;;-0.41;72.50;101885.50;1722806;82;21310;-56
2020/12/22 09:05:23;;;;;;;26.87;15.15;;;;;;;-0.47;72.43;101886.14;1714806;82;21127;-55
2020/12/22 09:08:00;;;;;;;26.42;13.75;;;;;;;-0.50;72.67;101883.28;1711190;82;21065;-54
2020/12/22 09:10:28;;;;;;;26.87;16.27;;;;;;;-0.47;72.85;101880.73;1738978;81;21065;-56
2020/12/22 09:12:56;;;;;;;27.45;17.05;;;;;;;-0.46;72.76;101872.47;1753018;80;20986;-57
2020/12/22 09:15:24;;;;;;;24.05;17.30;;;;;;;-0.49;72.70;101879.56;1751637;80;21452;-55
2020/12/22 09:17:52;;;;;;;28.23;18.07;;;;;;;-0.54;72.85;101866.56;1755980;80;21019;-56
2020/12/22 09:20:22;;;;;;;28.38;17.55;;;;;;;-0.56;72.93;101871.78;1738463;81;21987;-55
2020/12/22 09:22:49;;;;;;;31.82;19.52;;;;;;;-0.55;73.05;101864.86;1731562;81;21715;-53
2020/12/22 09:25:17;;;;;;;21.85;16.20;;;;;;;-0.54;73.15;101869.78;1746592;81;21013;-56
2020/12/22 09:27:44;;;;;;;28.98;15.55;;;;;;;-0.57;73.26;101867.41;1740457;81;21494;-56
2020/12/22 09:30:14;;;;;;;24.77;16.85;;;;;;;-0.62;73.37;101863.00;1725886;81;21029;-56
2020/12/22 09:32:43;;;;;;;26.52;17.77;;;;;;;-0.64;73.70;101858.25;1720085;81;21032;-57
2020/12/22 09:35:10;;;;;;;27.37;16.80;;;;;;;-0.59;73.70;101860.80;1721519;81;20963;-55
2020/12/22 09:37:38;;;;;;;27.10;18.17;;;;;;;-0.59;73.69;101855.91;1735478;81;21565;-56
2020/12/22 09:40:05;;;;;;;26.00;18.05;;;;;;;-0.58;73.74;101850.87;1730502;81;21196;-56
2020/12/22 09:42:33;;;;;;;27.00;19.73;;;;;;;-0.58;73.75;101849.52;1729334;81;20974;-58
2020/12/22 09:45:01;;;;;;;30.15;18.62;;;;;;;-0.58;73.87;101842.77;1755439;80;21021;-56
2020/12/22 09:47:28;;;;;;;33.20;19.50;;;;;;;-0.57;73.91;101843.12;1727689;81;21714;-56
2020/12/22 09:49:56;;;;;;;24.72;15.58;;;;;;;-0.51;74.14;101841.09;1717156;81;21051;-56
2020/12/22 09:52:23;;;;;;;26.57;15.83;;;;;;;-0.45;73.89;101831.49;1708378;82;21323;-56
2020/12/22 09:54:50;;;;;;;24.40;16.45;;;;;;;-0.49;73.81;101826.91;1725959;81;21001;-54
2020/12/22 09:57:18;;;;;;;25.20;16.70;;;;;;;-0.51;73.93;101828.95;1725372;81;21863;-58
2020/12/22 09:59:49;;;;;;;21.90;15.45;;;;;;;-0.49;74.12;101825.56;1743960;80;21008;-57
2020/12/22 10:02:18;;;;;;;27.17;16.80;;;;;;;-0.47;73.96;101824.91;1736754;80;21031;-56
2020/12/22 10:04:47;;;;;;;22.95;15.35;;;;;;;-0.48;74.09;101816.47;1736199;80;39355;-57
2020/12/22 10:07:14;;;;;;;27.70;18.35;;;;;;;-0.48;74.13;101816.47;1749509;80;21005;-55
2020/12/22 10:09:42;;;;;;;25.10;16.85;;;;;;;-0.49;74.35;101813.42;1728048;81;21010;-57
2020/12/22 10:12:11;;;;;;;31.77;19.10;;;;;;;-0.45;74.39;101808.03;1739905;81;21008;-56
2020/12/22 10:14:38;;;;;;;27.48;17.57;;;;;;;-0.40;74.30;101803.47;1762803;79;21576;-56
2020/12/22 10:17:07;;;;;;;30.92;17.77;;;;;;;-0.37;74.17;101806.70;1740695;80;21337;-55
2020/12/22 10:19:34;;;;;;;29.42;18.20;;;;;;;-0.38;73.99;101798.77;1744017;81;21074;-56
2020/12/22 10:22:01;;;;;;;26.37;16.10;;;;;;;-0.41;74.18;101796.41;1770764;80;21015;-58
2020/12/22 10:24:30;;;;;;;25.23;18.45;;;;;;;-0.41;74.27;101792.36;1725177;80;21041;-57
2020/12/22 10:26:58;;;;;;;33.13;19.05;;;;;;;-0.42;74.15;101796.89;1740855;81;21397;-57
2020/12/22 10:29:25;;;;;;;24.65;17.50;;;;;;;-0.43;74.23;101788.96;1755692;81;21375;-57
2020/12/22 10:31:55;;;;;;;35.38;20.80;;;;;;;-0.40;74.31;101788.63;1737879;81;21071;-56
2020/12/22 10:34:23;;;;;;;29.40;19.02;;;;;;;-0.41;74.35;101779.69;1743981;81;21015;-58
2020/12/22 10:36:53;;;;;;;29.27;17.90;;;;;;;-0.37;74.55;101774.81;1749377;81;21033;-57
2020/12/22 10:39:20;;;;;;;33.25;18.85;;;;;;;-0.30;74.49;101772.27;1744519;81;20997;-59
2020/12/22 10:41:48;;;;;;;29.72;18.35;;;;;;;-0.25;74.49;101773.45;1746767;81;21901;-56
2020/12/22 10:44:15;;;;;;;32.45;19.73;;;;;;;-0.19;74.47;101770.58;1751304;81;21005;-57
2020/12/22 10:46:47;;;;;;;34.20;21.40;;;;;;;-0.15;74.27;101763.00;1745486;81;21009;-56
2020/12/22 10:49:15;;;;;;;43.98;26.57;;;;;;;-0.13;74.30;101759.09;1745550;81;20946;-57
2020/12/22 10:51:43;;;;;;;35.33;23.35;;;;;;;-0.08;74.30;101757.25;1752060;81;20950;-55
2020/12/22 10:54:10;;;;;;;39.78;22.05;;;;;;;-0.01;74.30;101755.55;1755835;81;21406;-55
2020/12/22 10:56:38;;;;;;;30.52;19.73;;;;;;;0.04;74.19;101753.69;1748507;81;21005;-55
2020/12/22 10:59:06;;;;;;;42.30;24.32;;;;;;;0.10;74.11;101746.23;1748797;81;21754;-56
2020/12/22 11:01:34;;;;;;;36.10;22.77;;;;;;;0.16;74.00;101750.97;1749695;81;20985;-57
2020/12/22 11:04:01;;;;;;;38.08;22.82;;;;;;;0.25;73.82;101746.39;1718919;81;21670;-57
2020/12/22 11:06:38;;;;;;;43.63;24.15;;;;;;;0.28;73.55;101740.11;1720045;82;21455;-58
2020/12/22 11:08:58;;;;;;;38.75;22.10;;;;;;;0.26;73.33;101744.03;1737654;81;21044;-56
2020/12/22 11:11:25;;;;;;;47.03;25.08;;;;;;;0.26;73.24;101732.70;1739384;81;20985;-57
2020/12/22 11:13:53;;;;;;;36.15;22.73;;;;;;;0.25;73.27;101733.70;1741335;81;20942;-55
2020/12/22 11:16:25;;;;;;;43.40;25.92;;;;;;;0.22;73.26;101738.11;1750276;81;21006;-56
2020/12/22 11:18:53;;;;;;;47.45;25.72;;;;;;;0.19;73.39;101738.95;1743078;81;22152;-55